Rock Creek, Minnesota
Current Conditions -  °F | °C
As of 7:15 PM on Saturday 25 Oct 2014 (Local Time) from KROS Reporting Station
Broken Clouds Broken Clouds  
Wind Chill: 47°   Ceiling: 11000
Heat Index: 47°   Visibility: 10mi
Dew Point: 26°   Wind: 0mph
Humidity: 45%   Direction: NA
Pressure: 30.03"   Gusts: NA
Location:  45.76°N, 92.96°W
Report Text: KROS 260015Z AUTO 00000KT 10SM BKN110 08/M03 A3003 RMK AO2 T00821032
Loading
Personal Weather Stations






























Interactive Weather Map
Tropical Storm Tracking
New forecast layout! Learn more

10-Day Weather Forecast

Advertisements
Track Severe Weather on mobile